createdAt,value
2023-02-14T00:00:39.594Z,25.30
2023-02-14T00:01:43.124Z,23.55
2023-02-14T00:02:46.008Z,21.70
2023-02-14T00:03:49.610Z,25.98
2023-02-14T00:04:52.458Z,23.50
2023-02-14T00:05:55.229Z,23.00
2023-02-14T00:06:58.539Z,23.60
2023-02-14T00:08:01.276Z,23.65
2023-02-14T00:09:05.940Z,24.67
2023-02-14T00:10:10.178Z,27.25
2023-02-14T00:11:15.175Z,27.87
2023-02-14T00:12:18.321Z,27.40
2023-02-14T00:13:21.088Z,25.13
2023-02-14T00:14:42.368Z,26.10
2023-02-14T00:15:45.212Z,23.48
2023-02-14T00:16:48.078Z,23.77
2023-02-14T00:17:59.944Z,21.65
2023-02-14T00:19:05.971Z,21.83
2023-02-14T00:20:10.511Z,21.23
2023-02-14T00:21:13.297Z,21.33
2023-02-14T00:22:16.145Z,22.15
2023-02-14T00:23:19.232Z,24.35
2023-02-14T00:24:26.402Z,22.97
2023-02-14T00:25:29.124Z,24.17
2023-02-14T00:26:32.217Z,23.92
2023-02-14T00:27:35.765Z,21.80
2023-02-14T00:28:38.881Z,19.25
2023-02-14T00:29:41.645Z,21.25
2023-02-14T00:30:44.806Z,19.60
2023-02-14T00:31:48.218Z,20.25
2023-02-14T00:32:52.531Z,20.42
2023-02-14T00:33:55.629Z,21.67
2023-02-14T00:34:58.481Z,19.77
2023-02-14T00:36:04.106Z,20.37
2023-02-14T00:37:07.136Z,18.23
2023-02-14T00:38:09.906Z,19.90
2023-02-14T00:39:15.960Z,19.27
2023-02-14T00:40:18.729Z,20.85
2023-02-14T00:41:22.268Z,20.52
2023-02-14T00:42:27.083Z,19.48
2023-02-14T00:43:29.845Z,20.00
2023-02-14T00:44:33.397Z,19.52
2023-02-14T00:45:36.306Z,19.13
2023-02-14T00:46:39.850Z,20.03
2023-02-14T00:47:42.699Z,21.75
2023-02-14T00:48:46.133Z,22.23
2023-02-14T00:49:49.256Z,22.55
2023-02-14T00:50:52.183Z,19.12
2023-02-14T00:51:56.599Z,20.70
2023-02-14T00:52:59.417Z,19.05
2023-02-14T00:54:02.253Z,20.67
2023-02-14T00:55:06.748Z,19.45
2023-02-14T00:56:09.686Z,19.50
2023-02-14T00:57:12.440Z,20.73
2023-02-14T00:58:15.289Z,20.23
2023-02-14T00:59:18.148Z,19.05
2023-02-14T01:00:21.921Z,19.25
2023-02-14T01:01:25.040Z,21.10
2023-02-14T01:02:27.999Z,18.67
2023-02-14T01:03:31.057Z,18.52
2023-02-14T01:04:34.282Z,19.83
2023-02-14T01:05:37.390Z,20.48
2023-02-14T01:06:40.217Z,21.20
2023-02-14T01:07:43.269Z,19.40
2023-02-14T01:08:46.495Z,20.35
2023-02-14T01:09:49.458Z,20.27
2023-02-14T01:10:52.534Z,19.90
2023-02-14T01:11:55.388Z,20.10
2023-02-14T01:12:58.323Z,20.35
2023-02-14T01:14:01.161Z,20.25
2023-02-14T01:15:04.462Z,20.83
2023-02-14T01:16:10.505Z,19.35
2023-02-14T01:17:13.641Z,19.07
2023-02-14T01:18:18.641Z,19.27
2023-02-14T01:19:23.882Z,19.60
2023-02-14T01:20:27.394Z,19.55
2023-02-14T01:21:33.169Z,19.98
2023-02-14T01:22:39.301Z,19.02
2023-02-14T01:23:43.066Z,19.35
2023-02-14T01:24:46.746Z,20.37
2023-02-14T01:25:49.504Z,19.73
2023-02-14T01:26:52.776Z,18.77
2023-02-14T01:27:55.696Z,19.57
2023-02-14T01:28:58.496Z,21.37
2023-02-14T01:30:01.291Z,20.20
2023-02-14T01:31:08.458Z,19.80
2023-02-14T01:32:11.701Z,19.70
2023-02-14T10:52:59.484Z,5.07
2023-02-14T10:54:22.394Z,5.28
2023-02-14T10:55:32.708Z,6.10
2023-02-14T10:56:39.253Z,10.15
2023-02-14T10:57:43.559Z,6.53
2023-02-14T10:58:46.577Z,6.50
2023-02-14T11:00:01.248Z,6.67
2023-02-14T11:01:11.011Z,4.93
2023-02-14T11:02:15.687Z,4.60
2023-02-14T11:03:18.960Z,6.20
2023-02-14T11:04:24.767Z,5.30
2023-02-14T11:05:32.883Z,5.28
2023-02-14T11:06:35.636Z,4.95
2023-02-14T11:07:38.009Z,5.22
2023-02-14T11:08:41.191Z,4.93
2023-02-14T11:09:43.984Z,5.75
2023-02-14T11:10:46.805Z,5.33
2023-02-14T11:11:49.187Z,6.07
2023-02-14T11:12:51.623Z,5.10
2023-02-14T11:13:54.082Z,4.72
2023-02-14T11:15:08.338Z,5.15
2023-02-14T11:16:19.946Z,5.72
2023-02-14T11:17:29.812Z,5.25
2023-02-14T11:18:35.780Z,5.80
2023-02-14T11:19:38.957Z,5.30
2023-02-14T11:20:41.487Z,5.68
2023-02-14T11:21:45.492Z,5.13
2023-02-14T11:22:48.414Z,4.87
2023-02-14T11:23:51.672Z,5.68
2023-02-14T11:25:04.430Z,5.78
2023-02-14T11:26:16.256Z,5.43
2023-02-14T11:27:19.576Z,5.30
2023-02-14T11:28:22.162Z,5.03
2023-02-14T11:29:30.015Z,5.37
2023-02-14T11:30:43.711Z,5.63
2023-02-14T11:31:46.249Z,6.35
2023-02-14T11:32:58.163Z,6.40
2023-02-14T11:34:03.690Z,6.45
2023-02-14T11:35:13.993Z,6.03
2023-02-14T11:36:18.234Z,6.25
2023-02-14T11:37:23.906Z,6.18
2023-02-14T11:38:31.503Z,6.22
2023-02-14T11:39:37.754Z,6.43
2023-02-14T11:40:42.042Z,6.62
2023-02-14T11:41:51.772Z,7.35
2023-02-14T11:43:18.727Z,6.25
2023-02-14T11:44:26.348Z,7.07
2023-02-14T11:45:31.329Z,6.60
2023-02-14T11:46:41.387Z,6.07
2023-02-14T11:48:13.241Z,6.95
2023-02-14T11:49:38.857Z,6.83
2023-02-14T11:50:42.641Z,7.93
2023-02-14T11:51:45.593Z,5.93
2023-02-14T11:52:51.079Z,6.60
2023-02-14T11:53:56.069Z,7.00
2023-02-14T11:54:59.131Z,7.47
2023-02-14T11:56:03.851Z,7.28
2023-02-14T11:57:16.676Z,7.57
2023-02-14T11:58:45.326Z,7.55
2023-02-14T11:59:50.893Z,7.90
2023-02-14T12:00:54.169Z,8.23
2023-02-14T12:01:59.120Z,7.43
2023-02-14T12:03:04.846Z,8.32
2023-02-14T12:04:14.196Z,8.47
2023-02-14T12:05:19.612Z,7.75
2023-02-14T12:06:26.454Z,9.07
2023-02-14T12:07:31.131Z,9.52
2023-02-14T12:08:38.018Z,8.60
2023-02-14T12:09:42.891Z,9.02
2023-02-14T12:11:00.957Z,8.97
2023-02-14T12:12:14.871Z,11.68
2023-02-14T12:13:17.638Z,8.87
2023-02-14T12:14:21.098Z,9.82
2023-02-14T12:15:25.417Z,9.63
2023-02-14T12:16:35.377Z,9.93
2023-02-14T12:17:39.253Z,9.60
2023-02-14T12:18:54.240Z,9.50
2023-02-14T12:19:57.318Z,9.80
2023-02-14T12:21:12.787Z,13.80
2023-02-14T12:22:33.939Z,10.07
2023-02-14T12:23:45.441Z,9.38
2023-02-14T12:24:49.177Z,8.73
2023-02-14T12:26:02.488Z,9.75
2023-02-14T12:27:18.189Z,9.37
2023-02-14T12:28:26.111Z,8.75
2023-02-14T12:29:39.965Z,9.57
2023-02-14T12:30:42.754Z,9.20
2023-02-14T12:31:46.606Z,9.27
2023-02-14T12:32:51.139Z,11.05
2023-02-14T12:33:54.947Z,9.43
2023-02-14T12:35:26.689Z,10.63
2023-02-14T12:36:38.623Z,10.30
2023-02-14T12:37:50.743Z,9.30
2023-02-14T12:38:58.391Z,8.83
2023-02-14T12:40:10.067Z,9.02
2023-02-14T12:41:12.915Z,8.93
2023-02-14T12:42:35.081Z,8.63
2023-02-14T12:43:40.349Z,9.07
2023-02-14T12:45:03.072Z,8.15
2023-02-14T12:46:17.500Z,8.10
2023-02-14T12:47:27.520Z,7.75
2023-02-14T12:48:45.736Z,9.07
2023-02-14T12:50:09.948Z,8.10
2023-02-14T12:51:15.009Z,9.33
2023-02-14T12:52:32.438Z,8.02
2023-02-14T12:53:41.273Z,8.90
2023-02-14T12:54:46.233Z,8.55
2023-02-14T12:55:51.523Z,10.10
2023-02-14T12:57:07.979Z,8.60
2023-02-14T12:58:20.092Z,8.53
2023-02-14T12:59:43.536Z,7.80
2023-02-14T13:01:06.239Z,8.37
2023-02-14T13:02:27.895Z,8.13
2023-02-14T13:03:33.770Z,7.73
2023-02-14T13:04:40.978Z,7.90
2023-02-14T13:05:52.615Z,9.20
2023-02-14T13:06:59.812Z,8.90
2023-02-14T13:08:04.750Z,8.17
2023-02-14T13:09:19.050Z,8.27
2023-02-14T13:10:22.256Z,9.07
2023-02-14T13:11:44.706Z,6.65
2023-02-14T13:12:59.119Z,20.23
2023-02-14T13:14:04.660Z,9.27
2023-02-14T13:15:07.176Z,8.82
2023-02-14T13:16:20.277Z,7.77
2023-02-14T13:17:34.892Z,7.40
2023-02-14T13:18:46.565Z,8.65
2023-02-14T13:19:58.213Z,9.30
2023-02-14T13:21:03.030Z,11.37
2023-02-14T13:22:07.066Z,8.05
2023-02-14T13:23:15.802Z,7.20
2023-02-14T13:24:21.420Z,7.10
2023-02-14T13:25:35.696Z,7.50
2023-02-14T13:26:40.235Z,6.62
2023-02-14T13:27:43.353Z,7.23
2023-02-14T13:28:51.103Z,7.90
2023-02-14T13:29:55.876Z,8.10
2023-02-14T13:31:00.938Z,6.62
2023-02-14T13:32:03.975Z,8.37
2023-02-14T13:33:08.476Z,7.40
2023-02-14T13:34:19.917Z,6.35
2023-02-14T13:35:23.506Z,7.33
2023-02-14T13:36:26.761Z,8.57
2023-02-14T13:37:29.651Z,7.13
2023-02-14T13:38:32.981Z,7.37
2023-02-14T13:39:38.855Z,9.47
2023-02-14T13:40:42.310Z,8.77
2023-02-14T13:41:44.873Z,7.83
2023-02-14T13:42:50.515Z,7.80
2023-02-14T13:43:56.461Z,8.03
2023-02-14T13:44:58.964Z,7.47
2023-02-14T13:46:01.454Z,6.50
2023-02-14T13:47:04.538Z,6.53
2023-02-14T13:48:10.024Z,6.73
2023-02-14T13:49:18.661Z,7.73
2023-02-14T13:50:21.811Z,15.98
2023-02-14T13:51:43.189Z,12.90
2023-02-14T13:52:47.361Z,7.37
2023-02-14T13:53:51.469Z,7.47
2023-02-14T13:55:01.374Z,6.80
2023-02-14T13:56:05.799Z,6.43
2023-02-14T13:57:29.388Z,6.72
2023-02-14T13:58:32.257Z,6.80
2023-02-14T13:59:35.452Z,6.85
2023-02-14T14:00:39.407Z,7.93
2023-02-14T14:01:50.318Z,7.03
2023-02-14T14:02:53.926Z,7.70
2023-02-14T14:03:58.002Z,7.37
2023-02-14T14:05:00.565Z,9.50
2023-02-14T14:06:12.794Z,8.02
2023-02-14T14:07:24.501Z,7.77
2023-02-14T14:08:28.786Z,7.55
2023-02-14T14:09:44.942Z,7.70
2023-02-14T14:10:48.822Z,6.93
2023-02-14T14:11:52.262Z,6.60
2023-02-14T14:12:55.003Z,5.82
2023-02-14T14:13:59.379Z,6.00
2023-02-14T14:15:05.039Z,5.60
2023-02-14T14:16:29.231Z,6.90
2023-02-14T14:17:33.403Z,6.78
2023-02-14T14:18:50.779Z,6.53
2023-02-14T14:19:53.922Z,7.32
2023-02-14T14:20:59.941Z,8.67
2023-02-14T14:22:07.120Z,7.32
2023-02-14T14:23:25.735Z,6.70
2023-02-14T14:24:30.349Z,6.18
2023-02-14T14:26:06.536Z,6.37
2023-02-14T14:27:25.555Z,7.12
2023-02-14T14:28:30.722Z,6.47
2023-02-14T14:29:47.622Z,6.07
2023-02-14T14:30:51.753Z,7.60
2023-02-14T14:31:57.017Z,8.00
2023-02-14T14:33:33.351Z,8.10
2023-02-14T14:34:36.250Z,9.35
2023-02-14T14:35:39.147Z,7.57
2023-02-14T14:36:41.575Z,8.82
2023-02-14T14:38:11.591Z,7.63
2023-02-14T14:39:25.264Z,8.52
2023-02-14T14:40:34.498Z,8.20
2023-02-14T14:41:39.158Z,6.65
2023-02-14T14:42:43.995Z,7.00
2023-02-14T14:43:46.854Z,7.18
2023-02-14T14:45:18.541Z,6.40
2023-02-14T14:46:22.565Z,6.62
2023-02-14T14:47:26.857Z,5.10
2023-02-14T14:48:33.825Z,7.15
2023-02-14T14:49:36.828Z,8.37
2023-02-14T14:50:42.665Z,9.60
2023-02-14T14:51:45.775Z,9.90
2023-02-14T14:54:12.463Z,9.73
2023-02-14T14:55:23.118Z,8.68
2023-02-14T14:56:26.969Z,7.63
2023-02-14T14:57:31.329Z,8.43
2023-02-14T14:58:33.742Z,8.77
2023-02-14T14:59:40.393Z,8.52
2023-02-14T15:00:51.961Z,13.67
2023-02-14T15:01:54.765Z,28.35
2023-02-14T15:03:04.869Z,24.57
2023-02-14T15:04:12.054Z,23.52
2023-02-14T15:05:26.021Z,19.77
2023-02-14T15:06:28.865Z,13.23
2023-02-14T15:07:34.868Z,24.90
2023-02-14T15:08:39.040Z,12.18
2023-02-14T15:09:43.764Z,9.97
2023-02-14T15:11:02.292Z,20.73
2023-02-14T15:12:24.018Z,37.07
2023-02-14T15:13:58.437Z,17.30
2023-02-14T15:15:01.260Z,12.53
2023-02-14T15:16:05.100Z,22.15
2023-02-14T15:17:14.481Z,29.73
2023-02-14T15:18:17.469Z,20.12
2023-02-14T15:19:41.843Z,28.40
2023-02-14T15:20:49.231Z,29.02
2023-02-14T15:21:51.926Z,17.03
2023-02-14T15:22:54.968Z,35.10
2023-02-14T15:23:58.324Z,25.15
2023-02-14T15:25:08.266Z,34.43
2023-02-14T15:26:17.087Z,32.80
2023-02-14T15:27:21.331Z,28.10
2023-02-14T15:28:31.296Z,24.33
2023-02-14T15:29:34.276Z,32.15
2023-02-14T15:30:39.081Z,14.63
2023-02-14T15:31:44.355Z,13.88
2023-02-14T15:32:47.895Z,13.05
2023-02-14T15:33:50.381Z,19.17
2023-02-14T15:34:54.399Z,18.30
2023-02-14T15:35:58.023Z,52.93
2023-02-14T15:37:06.474Z,47.92
2023-02-14T15:38:10.926Z,71.07
2023-02-14T15:39:15.844Z,98.95
2023-02-14T15:40:22.738Z,55.17
2023-02-14T15:41:26.986Z,29.50
2023-02-14T15:42:33.441Z,27.65
2023-02-14T15:43:37.880Z,29.37
2023-02-14T15:44:40.631Z,84.80
2023-02-14T15:45:45.191Z,117.47
2023-02-14T15:46:53.814Z,45.77
2023-02-14T15:47:56.831Z,42.97
2023-02-14T15:49:01.492Z,27.70
2023-02-14T15:50:04.203Z,29.90
2023-02-14T15:51:15.236Z,23.55
2023-02-14T15:52:18.470Z,21.58
2023-02-14T15:53:33.634Z,32.90
2023-02-14T15:54:36.099Z,55.50
2023-02-14T15:55:38.693Z,29.17
2023-02-14T15:56:43.092Z,27.73
2023-02-14T15:57:48.600Z,27.00
2023-02-14T15:59:03.058Z,33.03
2023-02-14T16:00:11.371Z,29.85
2023-02-14T16:01:14.992Z,35.47
2023-02-14T16:02:23.203Z,33.50
2023-02-14T16:03:27.726Z,36.75
2023-02-14T16:04:34.979Z,25.45
2023-02-14T16:05:37.882Z,19.52
2023-02-14T16:06:44.751Z,16.30
2023-02-14T16:07:57.579Z,16.80
2023-02-14T16:09:00.647Z,17.83
2023-02-14T16:10:23.732Z,16.33
2023-02-14T16:11:30.601Z,16.25
2023-02-14T16:12:35.690Z,16.65
2023-02-14T16:13:39.829Z,23.83
2023-02-14T16:14:45.846Z,22.10
2023-02-14T16:15:59.251Z,28.92
2023-02-14T16:17:09.237Z,30.23
2023-02-14T16:18:20.454Z,34.17
2023-02-14T16:19:31.772Z,44.13
2023-02-14T16:20:43.363Z,26.83
2023-02-14T16:21:55.929Z,28.55
2023-02-14T16:23:14.712Z,38.75
2023-02-14T16:24:32.271Z,33.65
2023-02-14T16:25:35.651Z,28.55
2023-02-14T16:26:40.012Z,45.90
2023-02-14T16:27:43.195Z,45.60
2023-02-14T16:28:46.392Z,40.33
2023-02-14T16:29:50.376Z,41.55
2023-02-14T16:30:57.961Z,38.93
2023-02-14T16:32:17.379Z,36.10
2023-02-14T16:33:22.607Z,41.13
2023-02-14T16:34:26.925Z,33.47
2023-02-14T16:35:31.779Z,26.75
2023-02-14T16:36:35.355Z,19.40
2023-02-14T16:37:39.994Z,18.83
2023-02-14T16:38:44.517Z,18.40
2023-02-14T16:39:47.944Z,17.77
2023-02-14T16:40:55.209Z,19.30
2023-02-14T16:42:03.613Z,17.47
2023-02-14T16:43:07.368Z,17.83
2023-02-14T16:44:14.623Z,18.37
2023-02-14T16:45:19.761Z,19.83
2023-02-14T16:46:26.830Z,16.80
2023-02-14T16:47:31.156Z,21.98
2023-02-14T16:48:34.414Z,23.98
2023-02-14T16:49:37.738Z,18.55
2023-02-14T16:50:41.063Z,13.18
2023-02-14T16:51:46.397Z,18.55
2023-02-14T16:53:02.524Z,13.00
2023-02-14T16:54:09.004Z,13.33
2023-02-14T16:55:16.804Z,19.15
2023-02-14T16:56:39.218Z,19.92
2023-02-14T16:57:44.533Z,19.80
2023-02-14T16:58:48.209Z,15.65
2023-02-14T16:59:51.417Z,11.55
2023-02-14T17:00:56.128Z,10.43
2023-02-14T17:01:59.988Z,9.48
2023-02-14T17:03:10.983Z,11.02
2023-02-14T17:04:15.183Z,10.30
2023-02-14T17:05:19.643Z,12.23
2023-02-14T17:06:24.637Z,13.50
2023-02-14T17:07:28.533Z,13.23
2023-02-14T17:08:33.345Z,12.73
2023-02-14T17:09:40.567Z,11.70
2023-02-14T17:10:46.560Z,12.65
2023-02-14T17:11:52.810Z,12.63
2023-02-14T17:12:57.416Z,13.15
2023-02-14T17:14:00.625Z,12.32
2023-02-14T17:15:07.750Z,11.67
2023-02-14T17:16:13.374Z,11.33
2023-02-14T17:17:16.664Z,10.95
2023-02-14T17:18:21.703Z,11.50
2023-02-14T17:19:24.821Z,11.35
2023-02-14T17:20:29.257Z,10.13
2023-02-14T17:21:34.539Z,10.63
2023-02-14T17:22:37.895Z,9.65
2023-02-14T17:23:40.879Z,10.27
2023-02-14T17:24:44.109Z,10.85
2023-02-14T17:25:48.265Z,10.97
2023-02-14T17:26:51.949Z,11.00
2023-02-14T17:27:56.886Z,11.77
2023-02-14T17:29:00.015Z,10.93
2023-02-14T17:30:13.661Z,12.00
2023-02-14T17:31:18.467Z,11.45
2023-02-14T17:32:22.027Z,11.63
2023-02-14T17:33:26.580Z,14.02
2023-02-14T17:34:34.782Z,14.05
2023-02-14T17:35:38.453Z,13.52
2023-02-14T17:36:42.743Z,14.63
2023-02-14T17:37:47.265Z,15.93
2023-02-14T17:38:52.668Z,19.35
2023-02-14T17:39:57.519Z,19.02
2023-02-14T17:41:10.137Z,20.23
2023-02-14T17:42:18.040Z,22.23
2023-02-14T17:43:21.802Z,22.15
2023-02-14T17:44:25.478Z,22.05
2023-02-14T17:45:29.093Z,22.02
2023-02-14T17:46:34.090Z,19.42
2023-02-14T17:47:38.918Z,22.07
2023-02-14T17:48:46.131Z,24.07
2023-02-14T17:49:51.778Z,25.05
2023-02-14T17:50:55.473Z,26.33
2023-02-14T17:51:58.498Z,47.25
2023-02-14T17:53:02.336Z,41.92
2023-02-14T17:54:05.895Z,47.80
2023-02-14T17:55:12.269Z,41.35
2023-02-14T17:56:20.817Z,43.75
2023-02-14T17:57:24.670Z,61.63
2023-02-14T17:58:29.573Z,40.13
2023-02-14T17:59:35.506Z,38.63
2023-02-14T18:00:39.122Z,40.78
2023-02-14T18:01:43.491Z,43.75
2023-02-14T18:02:47.456Z,41.97
2023-02-14T18:03:54.951Z,42.03
2023-02-14T18:04:58.978Z,41.08
2023-02-14T18:06:03.465Z,38.90
2023-02-14T18:07:07.746Z,39.97
2023-02-14T18:08:14.657Z,40.72
2023-02-14T18:09:22.392Z,41.93
2023-02-14T18:10:30.404Z,41.83
2023-02-14T18:11:34.529Z,47.50
2023-02-14T18:12:44.449Z,50.65
2023-02-14T18:13:49.124Z,56.45
2023-02-14T18:14:53.961Z,59.13
2023-02-14T18:15:58.296Z,53.83
2023-02-14T18:17:06.109Z,47.25
2023-02-14T18:18:11.701Z,61.92
2023-02-14T18:19:17.075Z,45.58
2023-02-14T18:20:21.416Z,45.57
2023-02-14T18:21:26.114Z,36.30
2023-02-14T18:22:33.126Z,39.13
2023-02-14T18:23:40.783Z,38.22
2023-02-14T18:24:44.790Z,37.22
2023-02-14T18:25:55.518Z,31.52
2023-02-14T18:27:04.026Z,29.50
2023-02-14T18:28:07.909Z,25.15
2023-02-14T18:29:13.437Z,27.10
2023-02-14T18:30:17.664Z,27.48
2023-02-14T18:31:22.755Z,25.70
2023-02-14T18:32:28.058Z,27.07
2023-02-14T18:33:40.322Z,26.77
2023-02-14T18:34:45.149Z,27.80
2023-02-14T18:35:50.245Z,25.85
2023-02-14T18:36:54.078Z,27.30
2023-02-14T18:37:59.403Z,26.25
2023-02-14T18:39:05.788Z,32.33
2023-02-14T18:40:11.916Z,33.63
2023-02-14T18:41:17.403Z,27.50
2023-02-14T18:42:22.539Z,30.53
2023-02-14T18:43:26.566Z,34.03
2023-02-14T18:44:35.321Z,30.48
2023-02-14T18:45:41.073Z,30.12
2023-02-14T18:46:45.653Z,30.75
2023-02-14T18:47:51.559Z,29.98
2023-02-14T18:48:56.546Z,28.33
2023-02-14T18:50:00.875Z,29.83
2023-02-14T18:51:23.785Z,29.80
2023-02-14T18:52:27.972Z,32.17
2023-02-14T18:53:31.810Z,32.60
2023-02-14T18:54:36.296Z,34.83
2023-02-14T18:55:40.831Z,36.78
2023-02-14T18:56:45.693Z,35.00
2023-02-14T18:57:49.210Z,35.80
2023-02-14T18:58:56.163Z,35.72
2023-02-14T19:00:01.027Z,35.78
2023-02-14T19:01:09.248Z,38.97
2023-02-14T19:02:15.273Z,37.78
2023-02-14T19:03:19.173Z,38.30
2023-02-14T19:04:23.759Z,37.73
2023-02-14T19:05:31.140Z,38.57
2023-02-14T19:06:36.567Z,35.33
2023-02-14T19:07:42.339Z,33.13
2023-02-14T19:08:46.576Z,34.00
2023-02-14T19:09:50.765Z,36.92
2023-02-14T19:10:55.133Z,32.30
2023-02-14T19:12:00.635Z,29.73
2023-02-14T19:13:06.438Z,28.25
2023-02-14T19:14:11.512Z,25.80
2023-02-14T19:15:15.845Z,28.43
2023-02-14T19:16:22.485Z,29.33
2023-02-14T19:17:26.008Z,30.15
2023-02-14T19:18:31.398Z,29.02
2023-02-14T19:19:36.206Z,28.45
2023-02-14T19:20:41.110Z,26.08
2023-02-14T19:21:45.670Z,25.27
2023-02-14T19:22:49.717Z,25.88
2023-02-14T19:23:56.903Z,26.23
2023-02-14T19:25:04.234Z,25.45
2023-02-14T19:26:17.759Z,23.63
2023-02-14T19:27:31.631Z,25.40
2023-02-14T19:28:35.447Z,23.85
2023-02-14T19:29:40.365Z,26.15
2023-02-14T19:30:44.964Z,34.22
2023-02-14T19:31:50.306Z,30.65
2023-02-14T19:32:54.852Z,26.02
2023-02-14T19:33:58.646Z,28.75
2023-02-14T19:35:04.609Z,31.10
2023-02-14T19:36:09.926Z,32.92
2023-02-14T19:37:13.953Z,26.10
2023-02-14T19:38:18.464Z,29.07
2023-02-14T19:39:24.727Z,30.55
2023-02-14T19:40:30.495Z,29.80
2023-02-14T19:41:35.185Z,31.35
2023-02-14T19:42:40.969Z,32.10
2023-02-14T19:43:49.121Z,31.15
2023-02-14T19:44:55.537Z,36.08
2023-02-14T19:46:03.336Z,34.25
2023-02-14T19:47:25.373Z,35.70
2023-02-14T19:48:32.144Z,34.07
2023-02-14T19:49:36.814Z,27.70
2023-02-14T19:50:45.998Z,26.58
2023-02-14T19:51:52.250Z,22.13
2023-02-14T19:52:56.960Z,20.45
2023-02-14T19:54:03.428Z,18.75
2023-02-14T19:55:08.569Z,17.42
2023-02-14T19:56:13.842Z,17.37
2023-02-14T19:57:23.199Z,17.00
2023-02-14T19:58:28.981Z,16.40
2023-02-14T19:59:34.788Z,16.20
2023-02-14T20:00:39.185Z,15.33
2023-02-14T20:01:48.126Z,16.40
2023-02-14T20:02:52.762Z,18.87
2023-02-14T20:03:57.541Z,20.15
2023-02-14T20:05:04.978Z,21.52
2023-02-14T20:06:09.691Z,19.58
2023-02-14T20:07:15.346Z,20.95
2023-02-14T20:08:19.737Z,18.60
2023-02-14T20:09:26.664Z,17.73
2023-02-14T20:10:31.754Z,15.13
2023-02-14T20:11:56.303Z,15.57
2023-02-14T20:13:03.480Z,16.02
2023-02-14T20:14:08.262Z,15.35
2023-02-14T20:15:12.800Z,14.40
2023-02-14T20:16:19.462Z,16.77
2023-02-14T20:17:26.215Z,14.57
2023-02-14T20:18:32.932Z,14.68
2023-02-14T20:19:38.639Z,15.52
2023-02-14T20:21:07.011Z,15.00
2023-02-14T20:22:11.406Z,14.07
2023-02-14T20:23:17.441Z,17.07
2023-02-14T20:24:31.232Z,19.60
2023-02-14T20:25:41.063Z,19.27
2023-02-14T20:26:46.365Z,22.73
2023-02-14T20:27:54.183Z,23.52
2023-02-14T20:29:00.742Z,24.33
2023-02-14T20:30:07.020Z,24.05
2023-02-14T20:31:13.215Z,24.90
2023-02-14T20:32:19.034Z,23.08
2023-02-14T20:33:24.147Z,22.23
2023-02-14T20:34:30.499Z,23.60
2023-02-14T20:35:39.368Z,22.80
2023-02-14T20:36:44.196Z,24.00
2023-02-14T20:37:48.724Z,24.23
2023-02-14T20:39:09.852Z,24.42
2023-02-14T20:40:14.686Z,26.83
2023-02-14T20:41:19.482Z,26.73
2023-02-14T20:42:26.114Z,29.65
2023-02-14T20:43:31.740Z,30.85
2023-02-14T20:44:37.097Z,29.27
2023-02-14T20:45:42.041Z,29.23
2023-02-14T20:46:52.208Z,27.40
2023-02-14T20:48:03.880Z,26.48
2023-02-14T20:49:10.045Z,27.27
2023-02-14T20:50:18.972Z,25.10
2023-02-14T20:51:25.954Z,26.62
2023-02-14T20:52:43.329Z,25.02
2023-02-14T20:53:48.064Z,23.98
2023-02-14T20:54:52.612Z,22.55
2023-02-14T20:55:57.061Z,23.10
2023-02-14T20:57:02.005Z,21.63
2023-02-14T20:58:07.516Z,20.00
2023-02-14T20:59:13.480Z,21.17
2023-02-14T21:00:22.133Z,20.90
2023-02-14T21:01:27.365Z,20.90
2023-02-14T21:02:35.695Z,18.50
2023-02-14T21:03:43.880Z,21.52
2023-02-14T21:04:51.665Z,16.55
2023-02-14T21:05:59.483Z,17.52
2023-02-14T21:07:08.681Z,16.93
2023-02-14T21:08:12.922Z,19.47
2023-02-14T21:09:20.882Z,19.73
2023-02-14T21:10:32.247Z,18.65
2023-02-14T21:11:37.044Z,17.90
2023-02-14T21:12:45.390Z,18.55
2023-02-14T21:13:54.369Z,16.00
2023-02-14T21:15:01.589Z,18.20
2023-02-14T21:16:15.592Z,18.23
2023-02-14T21:17:20.723Z,17.40
2023-02-14T21:18:25.635Z,14.90
2023-02-14T21:19:30.159Z,17.10
2023-02-14T21:20:35.188Z,15.95
2023-02-14T21:21:42.822Z,15.80
2023-02-14T21:22:48.977Z,16.75
2023-02-14T21:23:54.601Z,16.23
2023-02-14T21:24:58.908Z,15.18
2023-02-14T21:26:04.272Z,16.35
2023-02-14T21:27:09.982Z,16.55
2023-02-14T21:28:20.855Z,16.77
2023-02-14T21:29:26.368Z,16.23
2023-02-14T21:30:33.051Z,15.87
2023-02-14T21:31:38.148Z,16.05
2023-02-14T21:32:42.112Z,16.20
2023-02-14T21:33:46.872Z,15.98
2023-02-14T21:34:52.023Z,15.60
2023-02-14T21:35:57.339Z,15.77
2023-02-14T21:37:01.641Z,15.70
2023-02-14T21:38:06.017Z,16.67
2023-02-14T21:39:10.354Z,15.13
2023-02-14T21:40:15.638Z,13.57
2023-02-14T21:41:21.103Z,15.20
2023-02-14T21:42:26.661Z,15.20
2023-02-14T21:43:36.480Z,17.08
2023-02-14T21:44:58.771Z,17.20
2023-02-14T21:46:11.048Z,14.75
2023-02-14T21:47:15.820Z,14.45
2023-02-14T21:48:39.014Z,18.30
2023-02-14T21:50:01.948Z,22.52
2023-02-14T21:51:06.735Z,18.85
2023-02-14T21:52:11.816Z,18.83
2023-02-14T21:53:20.723Z,16.97
2023-02-14T21:54:26.326Z,17.40
2023-02-14T21:55:31.243Z,16.95
2023-02-14T21:56:36.136Z,18.05
2023-02-14T21:57:41.378Z,17.15
2023-02-14T21:58:45.089Z,19.05
2023-02-14T21:59:49.809Z,20.15
2023-02-14T22:00:53.613Z,20.52
2023-02-14T22:01:58.939Z,20.10
2023-02-14T22:03:02.432Z,18.37
2023-02-14T22:04:09.384Z,17.43
2023-02-14T22:05:13.556Z,18.67
2023-02-14T22:06:16.978Z,19.05
2023-02-14T22:07:22.102Z,19.50
2023-02-14T22:08:25.407Z,19.20
2023-02-14T22:09:28.405Z,20.45
2023-02-14T22:10:31.217Z,20.02
2023-02-14T22:11:34.568Z,17.98
2023-02-14T22:12:37.628Z,19.17
2023-02-14T22:13:40.913Z,19.27
2023-02-14T22:14:43.702Z,19.50
2023-02-14T22:15:46.527Z,19.60
2023-02-14T22:16:50.880Z,19.73
2023-02-14T22:17:53.981Z,20.92
2023-02-14T22:18:56.552Z,21.95
2023-02-14T22:19:58.953Z,21.33
2023-02-14T22:21:02.954Z,21.67
2023-02-14T22:22:05.855Z,20.60
2023-02-14T22:23:08.743Z,21.73
2023-02-14T22:24:11.333Z,20.13
2023-02-14T22:25:13.787Z,20.17
2023-02-14T22:26:28.867Z,21.98
2023-02-14T22:27:32.228Z,20.15
2023-02-14T22:28:34.958Z,22.17
2023-02-14T22:29:37.433Z,21.83
2023-02-14T22:30:40.357Z,21.23
2023-02-14T22:31:43.520Z,22.13
2023-02-14T22:32:46.065Z,21.48
2023-02-14T22:33:49.706Z,23.25
2023-02-14T22:34:52.275Z,22.83
2023-02-14T22:35:55.724Z,23.10
2023-02-14T22:37:02.724Z,23.38
2023-02-14T22:38:05.260Z,23.95
2023-02-14T22:39:08.056Z,24.30
2023-02-14T22:40:10.687Z,25.50
2023-02-14T22:41:14.683Z,25.42
2023-02-14T22:42:17.173Z,27.23
2023-02-14T22:43:19.584Z,24.87
2023-02-14T22:44:22.301Z,25.42
2023-02-14T22:45:24.815Z,21.03
2023-02-14T22:46:28.039Z,19.77
2023-02-14T22:47:31.447Z,19.23
2023-02-14T22:48:34.525Z,21.17
2023-02-14T22:49:37.203Z,20.52
2023-02-14T22:50:39.966Z,21.60
2023-02-14T22:51:42.980Z,20.25
2023-02-14T22:52:45.594Z,22.70
2023-02-14T22:53:48.580Z,22.00
2023-02-14T22:54:54.025Z,20.55
2023-02-14T22:55:56.482Z,21.07
2023-02-14T22:57:00.048Z,20.03
2023-02-14T22:58:02.558Z,18.90
2023-02-14T22:59:06.591Z,19.40
2023-02-14T23:00:11.767Z,19.23
2023-02-14T23:01:15.755Z,17.52
2023-02-14T23:02:18.278Z,18.25
2023-02-14T23:03:21.419Z,17.10
2023-02-14T23:04:25.043Z,17.60
2023-02-14T23:05:27.722Z,17.23
2023-02-14T23:06:31.031Z,18.10
2023-02-14T23:07:33.882Z,16.90
2023-02-14T23:08:43.284Z,17.48
2023-02-14T23:09:45.744Z,18.77
2023-02-14T23:10:49.149Z,19.20
2023-02-14T23:11:52.674Z,17.92
2023-02-14T23:13:13.594Z,17.73
2023-02-14T23:14:35.052Z,16.83
2023-02-14T23:15:56.297Z,18.77
2023-02-14T23:17:25.136Z,18.85
2023-02-14T23:18:46.236Z,17.13
2023-02-14T23:20:07.456Z,17.47
2023-02-14T23:21:32.074Z,16.58
2023-02-14T23:22:37.950Z,17.92
2023-02-14T23:23:40.373Z,18.30
2023-02-14T23:24:43.075Z,17.35
2023-02-14T23:25:45.467Z,16.50
2023-02-14T23:26:48.057Z,17.45
2023-02-14T23:27:51.048Z,17.33
2023-02-14T23:28:54.133Z,17.50
2023-02-14T23:29:56.587Z,17.53
2023-02-14T23:31:02.721Z,16.67
2023-02-14T23:32:06.068Z,16.65
2023-02-14T23:33:08.762Z,17.20
2023-02-14T23:34:11.766Z,17.33
2023-02-14T23:35:14.167Z,16.42
2023-02-14T23:36:16.804Z,16.77
2023-02-14T23:37:19.897Z,17.48
2023-02-14T23:38:23.174Z,16.95
2023-02-14T23:39:25.980Z,18.37
2023-02-14T23:40:28.576Z,14.60
2023-02-14T23:41:49.519Z,16.93
2023-02-14T23:42:53.544Z,14.52
2023-02-14T23:43:56.295Z,15.65
2023-02-14T23:45:21.660Z,16.65
2023-02-14T23:46:24.101Z,16.02
2023-02-14T23:47:26.881Z,14.73
2023-02-14T23:48:29.321Z,15.32